Pagrindinis puslapis
METAR-TAF:

METAR-TAF

Oro uostai :

Kajo Largo del Suras, Kuba

platuma: 21-37N, ilguma: 081-33W, Aukštis: 2 m

Dabartinis oras

Ataskaita buvo paskelbta 1 valandą ir 10 minutes, ne 18:50 UTC
Vėjas 13 kt iš Rytų
Temperatūra 30°C
Drėgmė 70%
Slėgis 1019 hPa
Matomumas: 9000 m
Išsisklaidę debesys ne aukštis 2000 ft
Su prošvaistėmis ne aukštis 7000 ft

METAR: MUCL 221850Z 10013KT 9000 SCT020 BKN070 30/24 Q1019

Laikas: 16:00 (20:00 UTC)

Prognozė

Ataskaita buvo paskelbta 3 valandos ir 0 minutes, ne 17:00 UTC
Prognozė galioja nuo 22 metu 18 UTC su 23 metu 06 UTC
Vėjas 12 kt iš Rytų/Pietryčių
Matomumas: 9000 m
Išsisklaidę debesys ne aukštis 2000 ft

TAF: MUCL 221700Z 2218/2306 11012KT 9000 SCT020

Orai ataskaitas ir orų prognozės (METAR, TAF).

turimą stotys yra geltonos ir raudonos taškus žemėlapyje.

Perkelti pele per norėdami pamatyti stoties vardą.

Tada spustelėkite, norėdami matyti oro stebėjimo ir prognozės.

Norėdami pakeisti žemėlapį: spustelėkite ant žalios mygtukų su juodo kryžiaus žemyn,; žalią mygtuką su brūkšneliu, jei norite nutolinti; arba žalių rodyklių gretimoms žemėlapius.


METAR-TAF: